createdAt,value
2018-09-03T00:01:33.116Z,5.40
2018-09-03T00:04:02.114Z,2.50
2018-09-03T00:06:31.037Z,5.63
2018-09-03T00:08:59.994Z,4.27
2018-09-03T00:11:28.819Z,4.10
2018-09-03T00:13:57.756Z,4.17
2018-09-03T00:16:26.480Z,3.50
2018-09-03T00:18:55.287Z,3.73
2018-09-03T00:21:24.076Z,2.57
2018-09-03T00:23:52.658Z,3.60
2018-09-03T00:26:21.374Z,4.47
2018-09-03T00:28:50.465Z,4.30
2018-09-03T00:31:24.482Z,3.67
2018-09-03T00:33:58.416Z,4.67
2018-09-03T00:36:32.579Z,3.53
2018-09-03T00:39:06.726Z,3.90
2018-09-03T00:41:40.588Z,4.93
2018-09-03T00:44:14.315Z,4.97
2018-09-03T00:46:48.330Z,9.13
2018-09-03T00:49:17.289Z,4.00
2018-09-03T00:51:46.332Z,3.40
2018-09-03T00:54:15.137Z,6.30
2018-09-03T00:56:44.116Z,4.83
2018-09-03T00:59:13.002Z,3.30
2018-09-03T01:01:41.804Z,3.53
2018-09-03T01:04:10.885Z,2.70
2018-09-03T01:06:39.802Z,3.53
2018-09-03T01:09:09.175Z,3.20
2018-09-03T01:11:38.028Z,2.90
2018-09-03T01:14:06.859Z,4.73
2018-09-03T01:16:35.681Z,5.03
2018-09-03T01:19:04.689Z,3.50
2018-09-03T01:21:33.654Z,6.03
2018-09-03T01:24:02.594Z,3.60
2018-09-03T01:26:31.542Z,4.40
2018-09-03T01:29:00.533Z,4.00
2018-09-03T01:31:29.502Z,5.30
2018-09-03T01:33:58.437Z,9.03
2018-09-03T01:36:27.272Z,4.20
2018-09-03T01:38:56.030Z,4.00
2018-09-03T01:41:24.803Z,4.13
2018-09-03T01:43:53.597Z,4.53
2018-09-03T01:46:22.354Z,3.13
2018-09-03T01:48:51.016Z,4.60
2018-09-03T01:51:19.842Z,4.00
2018-09-03T01:53:48.576Z,3.10
2018-09-03T01:56:17.397Z,5.87
2018-09-03T01:58:46.147Z,5.90
2018-09-03T02:01:14.960Z,5.10
2018-09-03T02:03:43.682Z,7.07
2018-09-03T02:06:12.481Z,5.17
2018-09-03T02:08:41.262Z,5.90
2018-09-03T02:11:10.005Z,3.90
2018-09-03T02:13:38.923Z,4.43
2018-09-03T02:16:07.616Z,6.30
2018-09-03T02:18:36.408Z,4.97
2018-09-03T02:21:05.350Z,5.13
2018-09-03T02:23:34.264Z,3.47
2018-09-03T02:26:03.164Z,4.40
2018-09-03T02:28:31.945Z,4.13
2018-09-03T02:31:00.793Z,3.90
2018-09-03T02:33:29.504Z,5.80
2018-09-03T02:35:58.314Z,6.37
2018-09-03T02:38:27.026Z,4.20
2018-09-03T02:40:55.655Z,5.03
2018-09-03T02:43:24.525Z,4.40
2018-09-03T02:45:53.511Z,3.10
2018-09-03T02:48:22.250Z,4.30
2018-09-03T02:50:51.115Z,3.23
2018-09-03T02:53:20.035Z,5.67
2018-09-03T02:55:49.002Z,4.07
2018-09-03T02:58:17.950Z,3.53
2018-09-03T03:00:46.918Z,5.40
2018-09-03T03:03:15.845Z,4.93
2018-09-03T03:05:44.550Z,5.07
2018-09-03T03:08:13.481Z,6.77
2018-09-03T03:10:42.402Z,6.90
2018-09-03T03:13:11.069Z,7.53
2018-09-03T03:15:39.899Z,3.87
2018-09-03T03:18:08.972Z,6.87
2018-09-03T03:20:37.933Z,5.30
2018-09-03T03:23:07.007Z,6.03
2018-09-03T03:25:35.952Z,3.93
2018-09-03T03:28:04.848Z,4.00
2018-09-03T03:30:33.334Z,4.97
2018-09-03T03:33:02.196Z,6.17
2018-09-03T03:35:33.168Z,4.67
2018-09-03T03:38:02.106Z,4.30
2018-09-03T03:40:30.711Z,6.50
2018-09-03T03:42:59.468Z,3.87
2018-09-03T03:45:28.396Z,4.63
2018-09-03T03:47:57.481Z,8.60
2018-09-03T03:50:26.320Z,7.00
2018-09-03T03:52:55.210Z,4.53
2018-09-03T03:55:24.076Z,5.00
2018-09-03T03:57:52.727Z,3.30
2018-09-03T04:00:21.705Z,4.20
2018-09-03T04:02:50.605Z,4.67
2018-09-03T04:05:19.642Z,7.40
2018-09-03T04:07:48.473Z,5.20
2018-09-03T04:10:17.290Z,7.93
2018-09-03T04:12:51.410Z,4.40
2018-09-03T04:15:20.190Z,4.67
2018-09-03T04:17:49.263Z,6.70
2018-09-03T04:20:18.203Z,6.77
2018-09-03T04:22:47.120Z,4.33
2018-09-03T04:25:16.151Z,5.00
2018-09-03T04:27:45.031Z,3.67
2018-09-03T04:30:13.956Z,5.20
2018-09-03T04:32:42.814Z,4.17
2018-09-03T04:35:11.727Z,4.23
2018-09-03T04:37:40.534Z,7.90
2018-09-03T04:40:09.375Z,5.63
2018-09-03T04:42:38.241Z,5.77
2018-09-03T04:45:07.367Z,3.67
2018-09-03T04:47:36.142Z,4.30
2018-09-03T04:50:05.181Z,9.40
2018-09-03T05:01:23.174Z,4.70
2018-09-03T05:03:53.191Z,5.20
2018-09-03T05:06:23.957Z,4.30
2018-09-03T05:08:53.977Z,6.10
2018-09-03T05:11:22.698Z,5.03
2018-09-03T05:13:54.482Z,5.47
2018-09-03T05:16:23.103Z,5.40
2018-09-03T05:18:53.796Z,7.07
2018-09-03T05:21:23.251Z,5.00
2018-09-03T05:23:53.891Z,6.60
2018-09-03T05:26:22.640Z,4.77
2018-09-03T05:28:52.992Z,6.77
2018-09-03T05:31:23.615Z,6.00
2018-09-03T05:33:53.527Z,6.20
2018-09-03T05:36:25.043Z,9.77
2018-09-03T05:38:53.912Z,6.27
2018-09-03T05:44:23.441Z,5.80
2018-09-03T05:46:54.072Z,8.10
2018-09-03T05:49:42.658Z,6.90
2018-09-03T05:55:22.662Z,6.10
2018-09-03T05:57:54.619Z,6.33
2018-09-03T06:00:23.208Z,9.37
2018-09-03T06:02:52.787Z,4.87
2018-09-03T06:05:23.211Z,6.03
2018-09-03T06:07:52.987Z,9.00
2018-09-03T06:13:23.402Z,6.73
2018-09-03T06:15:53.622Z,8.03
2018-09-03T06:18:23.861Z,9.17
2018-09-03T06:20:54.087Z,8.67
2018-09-03T06:23:24.089Z,9.87
2018-09-03T06:25:56.565Z,9.33
2018-09-03T06:28:26.198Z,6.70
2018-09-03T06:30:55.667Z,8.20
2018-09-03T08:01:50.719Z,8.23
2018-09-03T08:04:37.316Z,5.60
2018-09-03T08:07:09.294Z,6.03
2018-09-03T12:26:53.830Z,24.20
2018-09-03T12:32:23.617Z,20.90
2018-09-03T12:37:48.107Z,18.33
2018-09-03T12:40:22.411Z,18.50
2018-09-03T12:42:53.372Z,20.67
2018-09-03T12:45:29.706Z,20.90
2018-09-03T12:49:57.700Z,17.50
2018-09-03T12:52:38.049Z,21.93
2018-09-03T12:57:50.482Z,16.80
2018-09-03T13:27:55.367Z,20.57
2018-09-03T13:30:24.845Z,24.70
2018-09-03T13:35:53.557Z,19.07
2018-09-03T13:55:51.657Z,23.20
2018-09-03T13:58:24.583Z,19.83
2018-09-03T14:03:54.415Z,27.47
2018-09-03T14:06:25.052Z,22.77
2018-09-03T14:58:15.401Z,19.77
2018-09-03T15:03:43.864Z,23.27
2018-09-03T15:06:12.680Z,25.57
2018-09-03T15:08:42.094Z,22.40
2018-09-03T15:11:14.633Z,20.60
2018-09-03T15:13:43.681Z,22.20
2018-09-03T15:16:14.082Z,27.13
2018-09-03T15:18:44.583Z,19.90
2018-09-03T15:21:13.408Z,19.37
2018-09-03T15:23:47.014Z,20.57
2018-09-03T15:26:20.124Z,17.77
2018-09-03T15:28:54.385Z,20.23
2018-09-03T15:31:35.289Z,25.13
2018-09-03T15:34:16.158Z,18.70
2018-09-03T15:37:06.597Z,18.70
2018-09-03T15:39:44.639Z,20.33
2018-09-03T15:42:16.559Z,23.30
2018-09-03T15:44:58.481Z,22.70
2018-09-03T15:47:30.795Z,21.37
2018-09-03T16:08:16.749Z,23.00
2018-09-03T16:10:45.382Z,18.10
2018-09-03T16:13:14.798Z,19.00
2018-09-03T16:18:29.327Z,18.20
2018-09-03T16:20:59.967Z,18.63
2018-09-03T16:23:46.044Z,21.73
2018-09-03T16:26:15.490Z,21.87
2018-09-03T16:28:44.259Z,20.30
2018-09-03T16:31:13.030Z,17.97
2018-09-03T16:33:42.131Z,19.40
2018-09-03T16:36:11.275Z,20.70
2018-09-03T16:38:40.056Z,18.80
2018-09-03T16:41:08.936Z,15.37
2018-09-03T16:43:37.755Z,17.67
2018-09-03T16:46:10.951Z,22.40
2018-09-03T16:48:39.934Z,15.67
2018-09-03T16:51:09.162Z,22.77
2018-09-03T16:53:38.379Z,18.67
2018-09-03T16:56:07.418Z,22.93
2018-09-03T16:58:36.210Z,23.90
2018-09-03T17:01:05.020Z,18.73
2018-09-03T17:03:33.774Z,23.37
2018-09-03T17:06:02.629Z,19.80
2018-09-03T17:08:31.463Z,19.33
2018-09-03T17:11:00.033Z,17.33
2018-09-03T17:13:28.957Z,21.30
2018-09-03T17:15:57.820Z,19.47
2018-09-03T17:18:26.596Z,18.67
2018-09-03T17:20:55.686Z,17.43
2018-09-03T17:23:24.312Z,19.63
2018-09-03T17:25:53.371Z,20.40
2018-09-03T17:28:22.211Z,17.87
2018-09-03T17:30:51.196Z,20.97
2018-09-03T17:33:20.087Z,22.07
2018-09-03T17:35:48.866Z,18.50
2018-09-03T17:38:17.471Z,18.27
2018-09-03T17:40:46.101Z,22.10
2018-09-03T17:43:22.213Z,21.63
2018-09-03T17:45:51.271Z,21.07
2018-09-03T17:48:20.346Z,24.70
2018-09-03T17:50:49.306Z,21.40
2018-09-03T17:53:20.970Z,20.40
2018-09-03T17:55:50.313Z,19.10
2018-09-03T17:58:19.352Z,19.43
2018-09-03T18:00:48.186Z,24.10
2018-09-03T18:03:17.536Z,21.97
2018-09-03T18:05:46.876Z,20.47
2018-09-03T18:08:15.819Z,25.07
2018-09-03T18:10:45.284Z,25.90
2018-09-03T18:13:13.879Z,20.93
2018-09-03T18:15:42.442Z,26.70
2018-09-03T18:18:11.075Z,23.33
2018-09-03T18:20:39.736Z,19.90
2018-09-03T18:23:08.546Z,24.27
2018-09-03T18:25:37.080Z,21.03
2018-09-03T18:28:05.696Z,16.30
2018-09-03T18:30:34.320Z,20.37
2018-09-03T18:33:02.982Z,21.07
2018-09-03T18:35:31.656Z,24.63
2018-09-03T18:38:00.442Z,23.97
2018-09-03T18:40:29.003Z,22.10
2018-09-03T18:42:57.559Z,23.70
2018-09-03T18:45:26.423Z,21.27
2018-09-03T18:47:55.420Z,21.33
2018-09-03T18:50:24.276Z,23.30
2018-09-03T18:52:52.967Z,24.67
2018-09-03T18:55:21.924Z,21.40
2018-09-03T18:57:50.972Z,23.53
2018-09-03T19:00:19.726Z,28.00
2018-09-03T19:02:48.431Z,23.13
2018-09-03T19:05:17.199Z,22.60
2018-09-03T19:08:39.435Z,21.60
2018-09-03T19:11:08.051Z,18.70
2018-09-03T19:13:36.636Z,23.47
2018-09-03T19:16:05.675Z,17.03
2018-09-03T19:18:34.326Z,20.07
2018-09-03T19:21:03.041Z,22.90
2018-09-03T19:23:31.677Z,21.87
2018-09-03T19:26:01.152Z,20.80
2018-09-03T19:28:33.554Z,23.00
2018-09-03T19:31:02.302Z,24.67
2018-09-03T19:33:31.739Z,26.47
2018-09-03T19:36:00.663Z,24.17
2018-09-03T19:41:21.771Z,22.67
2018-09-03T19:43:50.351Z,19.87
2018-09-03T19:46:19.173Z,19.57
2018-09-03T19:52:01.686Z,16.23
2018-09-03T19:54:30.717Z,19.93
2018-09-03T19:56:59.356Z,20.47
2018-09-03T19:59:30.783Z,19.10
2018-09-03T20:02:00.956Z,27.47
2018-09-03T20:04:29.913Z,20.80
2018-09-03T20:06:58.558Z,15.37
2018-09-03T20:09:28.585Z,17.80
2018-09-03T20:12:02.775Z,18.93
2018-09-03T20:14:32.125Z,23.33
2018-09-03T20:17:01.990Z,26.47
2018-09-03T20:19:32.992Z,22.23
2018-09-03T20:22:03.622Z,24.40
2018-09-03T20:24:32.759Z,19.80
2018-09-03T20:27:11.375Z,25.27
2018-09-03T20:29:40.196Z,26.87
2018-09-03T20:32:09.310Z,28.17
2018-09-03T20:34:37.849Z,30.50
2018-09-03T20:37:08.873Z,37.07
2018-09-03T20:39:39.431Z,28.93
2018-09-03T20:42:11.916Z,31.00
2018-09-03T20:44:41.164Z,31.23
2018-09-03T20:47:12.279Z,40.50
2018-09-03T20:49:43.335Z,32.30
2018-09-03T20:52:13.669Z,35.10
2018-09-03T20:54:48.403Z,31.43
2018-09-03T20:57:17.680Z,31.70
2018-09-03T20:59:47.803Z,34.20
2018-09-03T21:02:16.694Z,38.37
2018-09-03T21:04:45.490Z,40.67
2018-09-03T21:07:14.762Z,40.03
2018-09-03T21:09:44.459Z,43.63
2018-09-03T21:12:13.131Z,35.93
2018-09-03T21:14:42.454Z,41.33
2018-09-03T21:17:11.560Z,39.73
2018-09-03T21:19:41.376Z,43.57
2018-09-03T21:22:11.930Z,44.37
2018-09-03T21:24:40.865Z,43.10
2018-09-03T21:27:09.655Z,39.30
2018-09-03T21:29:40.466Z,48.20
2018-09-03T21:32:09.984Z,42.30
2018-09-03T21:34:39.367Z,40.47
2018-09-03T21:37:08.146Z,45.10
2018-09-03T21:39:37.144Z,39.90
2018-09-03T21:42:07.095Z,46.50
2018-09-03T21:44:37.119Z,46.07
2018-09-03T21:47:14.935Z,44.37
2018-09-03T21:49:44.548Z,43.50
2018-09-03T21:52:14.839Z,36.53
2018-09-03T21:54:44.206Z,44.03
2018-09-03T21:57:13.084Z,35.33
2018-09-03T21:59:42.098Z,34.70
2018-09-03T22:02:11.909Z,30.37
2018-09-03T22:04:43.645Z,29.03
2018-09-03T22:07:14.397Z,41.63
2018-09-03T22:09:44.480Z,34.10
2018-09-03T22:12:13.288Z,43.80
2018-09-03T22:14:43.418Z,33.90
2018-09-03T22:17:12.711Z,34.53
2018-09-03T22:19:42.186Z,31.87
2018-09-03T22:22:12.224Z,34.43
2018-09-03T22:24:43.335Z,31.83
2018-09-03T22:27:12.203Z,28.17
2018-09-03T22:29:40.776Z,33.40
2018-09-03T22:32:10.464Z,31.80
2018-09-03T22:34:39.175Z,25.23
2018-09-03T22:37:07.914Z,25.97
2018-09-03T22:39:43.430Z,28.50
2018-09-03T22:42:12.326Z,36.07
2018-09-03T22:44:41.352Z,28.33
2018-09-03T22:47:10.257Z,31.00
2018-09-03T22:49:38.878Z,37.83
2018-09-03T22:52:07.839Z,34.40
2018-09-03T22:54:36.996Z,32.77
2018-09-03T22:57:06.130Z,39.50
2018-09-03T22:59:35.078Z,27.77
2018-09-03T23:02:04.059Z,33.63
2018-09-03T23:04:33.064Z,35.50
2018-09-03T23:07:01.808Z,33.83
2018-09-03T23:09:30.894Z,38.77
2018-09-03T23:11:59.660Z,35.57
2018-09-03T23:14:28.471Z,44.30
2018-09-03T23:16:57.509Z,38.30
2018-09-03T23:19:26.502Z,37.37
2018-09-03T23:21:55.221Z,40.90
2018-09-03T23:24:24.636Z,40.60
2018-09-03T23:26:53.371Z,36.70
2018-09-03T23:29:22.497Z,37.23
2018-09-03T23:31:51.790Z,39.57
2018-09-03T23:34:20.565Z,36.10
2018-09-03T23:36:49.660Z,39.47
2018-09-03T23:39:18.371Z,39.90
2018-09-03T23:41:49.938Z,41.33
2018-09-03T23:44:18.911Z,39.20
2018-09-03T23:46:48.098Z,34.23
2018-09-03T23:49:16.858Z,37.23
2018-09-03T23:51:45.543Z,40.07
2018-09-03T23:54:14.475Z,36.17
2018-09-03T23:56:43.219Z,39.87
2018-09-03T23:59:12.659Z,40.87
